sensor_id;sensor_type;location;lat;lon;timestamp;P1;durP1;ratioP1;P2;durP2;ratioP2
9799;SDS011;4939;52.00085300;4.17406100;2024-02-14T00:00:18;18.73;;;8.90;;
9799;SDS011;4939;52.00085300;4.17406100;2024-02-14T00:02:46;21.55;;;9.13;;
9799;SDS011;4939;52.00085300;4.17406100;2024-02-14T00:05:15;22.55;;;10.15;;
9799;SDS011;4939;52.00085300;4.17406100;2024-02-14T00:07:41;23.83;;;10.57;;
9799;SDS011;4939;52.00085300;4.17406100;2024-02-14T00:10:08;16.67;;;7.65;;
9799;SDS011;4939;52.00085300;4.17406100;2024-02-14T00:12:34;16.60;;;7.82;;
9799;SDS011;4939;52.00085300;4.17406100;2024-02-14T00:15:07;17.65;;;8.63;;
9799;SDS011;4939;52.00085300;4.17406100;2024-02-14T00:17:33;16.75;;;7.80;;
9799;SDS011;4939;52.00085300;4.17406100;2024-02-14T00:20:00;18.40;;;8.52;;
9799;SDS011;4939;52.00085300;4.17406100;2024-02-14T00:22:26;12.40;;;5.60;;
9799;SDS011;4939;52.00085300;4.17406100;2024-02-14T00:24:52;11.43;;;5.80;;
9799;SDS011;4939;52.00085300;4.17406100;2024-02-14T00:27:18;18.05;;;7.65;;
9799;SDS011;4939;52.00085300;4.17406100;2024-02-14T00:29:44;20.80;;;8.23;;
9799;SDS011;4939;52.00085300;4.17406100;2024-02-14T00:32:14;17.65;;;7.63;;
9799;SDS011;4939;52.00085300;4.17406100;2024-02-14T00:34:40;18.42;;;8.10;;
9799;SDS011;4939;52.00085300;4.17406100;2024-02-14T00:37:07;13.90;;;6.22;;
9799;SDS011;4939;52.00085300;4.17406100;2024-02-14T00:39:33;17.98;;;8.10;;
9799;SDS011;4939;52.00085300;4.17406100;2024-02-14T00:41:59;16.42;;;7.68;;
9799;SDS011;4939;52.00085300;4.17406100;2024-02-14T00:44:25;15.88;;;7.53;;
9799;SDS011;4939;52.00085300;4.17406100;2024-02-14T00:46:57;13.27;;;6.55;;
9799;SDS011;4939;52.00085300;4.17406100;2024-02-14T00:49:24;16.13;;;7.80;;
9799;SDS011;4939;52.00085300;4.17406100;2024-02-14T00:51:51;14.60;;;7.32;;
9799;SDS011;4939;52.00085300;4.17406100;2024-02-14T00:54:17;21.33;;;7.47;;
9799;SDS011;4939;52.00085300;4.17406100;2024-02-14T00:56:43;16.77;;;7.55;;
9799;SDS011;4939;52.00085300;4.17406100;2024-02-14T00:59:09;14.07;;;6.90;;
9799;SDS011;4939;52.00085300;4.17406100;2024-02-14T01:01:35;18.42;;;7.13;;
9799;SDS011;4939;52.00085300;4.17406100;2024-02-14T01:04:01;16.75;;;7.07;;
9799;SDS011;4939;52.00085300;4.17406100;2024-02-14T01:06:29;12.73;;;5.32;;
9799;SDS011;4939;52.00085300;4.17406100;2024-02-14T01:08:58;16.67;;;6.03;;
9799;SDS011;4939;52.00085300;4.17406100;2024-02-14T01:11:24;12.02;;;5.85;;
9799;SDS011;4939;52.00085300;4.17406100;2024-02-14T01:13:50;15.55;;;6.53;;
9799;SDS011;4939;52.00085300;4.17406100;2024-02-14T01:16:16;15.55;;;6.20;;
9799;SDS011;4939;52.00085300;4.17406100;2024-02-14T01:18:43;25.83;;;7.05;;
9799;SDS011;4939;52.00085300;4.17406100;2024-02-14T01:21:09;14.13;;;4.85;;
9799;SDS011;4939;52.00085300;4.17406100;2024-02-14T01:23:35;17.48;;;6.30;;
9799;SDS011;4939;52.00085300;4.17406100;2024-02-14T01:26:01;17.08;;;7.05;;
9799;SDS011;4939;52.00085300;4.17406100;2024-02-14T01:28:27;12.25;;;5.63;;
9799;SDS011;4939;52.00085300;4.17406100;2024-02-14T01:30:53;12.85;;;6.15;;
9799;SDS011;4939;52.00085300;4.17406100;2024-02-14T01:33:21;14.35;;;5.82;;
9799;SDS011;4939;52.00085300;4.17406100;2024-02-14T01:35:47;9.25;;;4.88;;
9799;SDS011;4939;52.00085300;4.17406100;2024-02-14T01:38:13;11.20;;;5.32;;
9799;SDS011;4939;52.00085300;4.17406100;2024-02-14T01:40:42;12.35;;;5.40;;
9799;SDS011;4939;52.00085300;4.17406100;2024-02-14T01:43:09;12.10;;;5.97;;
9799;SDS011;4939;52.00085300;4.17406100;2024-02-14T01:45:35;13.57;;;5.45;;
9799;SDS011;4939;52.00085300;4.17406100;2024-02-14T01:48:01;14.23;;;6.38;;
9799;SDS011;4939;52.00085300;4.17406100;2024-02-14T01:50:28;12.45;;;4.68;;
9799;SDS011;4939;52.00085300;4.17406100;2024-02-14T01:52:55;13.70;;;5.68;;
9799;SDS011;4939;52.00085300;4.17406100;2024-02-14T01:55:24;18.20;;;6.32;;
9799;SDS011;4939;52.00085300;4.17406100;2024-02-14T01:57:51;14.93;;;5.45;;
9799;SDS011;4939;52.00085300;4.17406100;2024-02-14T02:00:18;13.80;;;5.65;;
9799;SDS011;4939;52.00085300;4.17406100;2024-02-14T02:02:44;15.73;;;5.57;;
9799;SDS011;4939;52.00085300;4.17406100;2024-02-14T02:05:12;11.02;;;5.15;;
9799;SDS011;4939;52.00085300;4.17406100;2024-02-14T02:07:39;13.13;;;4.75;;
9799;SDS011;4939;52.00085300;4.17406100;2024-02-14T02:10:08;15.68;;;6.20;;
9799;SDS011;4939;52.00085300;4.17406100;2024-02-14T02:12:36;16.30;;;6.10;;
9799;SDS011;4939;52.00085300;4.17406100;2024-02-14T02:15:06;15.18;;;5.60;;
9799;SDS011;4939;52.00085300;4.17406100;2024-02-14T02:17:36;19.10;;;6.13;;
9799;SDS011;4939;52.00085300;4.17406100;2024-02-14T02:20:02;13.13;;;5.15;;
9799;SDS011;4939;52.00085300;4.17406100;2024-02-14T02:22:30;15.52;;;5.50;;
9799;SDS011;4939;52.00085300;4.17406100;2024-02-14T02:25:00;18.13;;;5.85;;
9799;SDS011;4939;52.00085300;4.17406100;2024-02-14T02:27:26;13.70;;;5.13;;
9799;SDS011;4939;52.00085300;4.17406100;2024-02-14T02:29:52;17.73;;;5.38;;
9799;SDS011;4939;52.00085300;4.17406100;2024-02-14T02:32:18;18.27;;;6.65;;
9799;SDS011;4939;52.00085300;4.17406100;2024-02-14T02:34:45;20.17;;;6.60;;
9799;SDS011;4939;52.00085300;4.17406100;2024-02-14T02:37:11;18.27;;;5.78;;
9799;SDS011;4939;52.00085300;4.17406100;2024-02-14T02:39:37;16.73;;;5.47;;
9799;SDS011;4939;52.00085300;4.17406100;2024-02-14T02:42:03;17.70;;;5.15;;
9799;SDS011;4939;52.00085300;4.17406100;2024-02-14T02:44:30;19.60;;;5.07;;
9799;SDS011;4939;52.00085300;4.17406100;2024-02-14T02:46:56;16.05;;;4.55;;
9799;SDS011;4939;52.00085300;4.17406100;2024-02-14T02:49:22;18.23;;;5.32;;
9799;SDS011;4939;52.00085300;4.17406100;2024-02-14T02:51:48;18.25;;;5.35;;
9799;SDS011;4939;52.00085300;4.17406100;2024-02-14T02:54:14;21.20;;;5.35;;
9799;SDS011;4939;52.00085300;4.17406100;2024-02-14T02:56:40;20.85;;;5.55;;
9799;SDS011;4939;52.00085300;4.17406100;2024-02-14T02:59:07;17.95;;;5.30;;
9799;SDS011;4939;52.00085300;4.17406100;2024-02-14T03:01:36;15.60;;;4.72;;
9799;SDS011;4939;52.00085300;4.17406100;2024-02-14T03:04:02;21.05;;;5.90;;
9799;SDS011;4939;52.00085300;4.17406100;2024-02-14T03:06:28;17.15;;;4.43;;
9799;SDS011;4939;52.00085300;4.17406100;2024-02-14T03:08:54;17.88;;;5.25;;
9799;SDS011;4939;52.00085300;4.17406100;2024-02-14T03:11:22;19.05;;;5.82;;
9799;SDS011;4939;52.00085300;4.17406100;2024-02-14T03:13:48;24.77;;;6.13;;
9799;SDS011;4939;52.00085300;4.17406100;2024-02-14T03:16:14;24.85;;;6.15;;
9799;SDS011;4939;52.00085300;4.17406100;2024-02-14T03:18:42;27.20;;;6.20;;
9799;SDS011;4939;52.00085300;4.17406100;2024-02-14T03:21:08;24.00;;;5.82;;
9799;SDS011;4939;52.00085300;4.17406100;2024-02-14T03:23:37;25.08;;;5.82;;
9799;SDS011;4939;52.00085300;4.17406100;2024-02-14T03:26:04;20.15;;;4.15;;
9799;SDS011;4939;52.00085300;4.17406100;2024-02-14T03:28:33;31.00;;;6.05;;
9799;SDS011;4939;52.00085300;4.17406100;2024-02-14T03:30:59;26.23;;;6.82;;
9799;SDS011;4939;52.00085300;4.17406100;2024-02-14T03:33:25;28.25;;;5.85;;
9799;SDS011;4939;52.00085300;4.17406100;2024-02-14T03:35:51;19.85;;;5.60;;
9799;SDS011;4939;52.00085300;4.17406100;2024-02-14T03:38:27;19.33;;;4.72;;
9799;SDS011;4939;52.00085300;4.17406100;2024-02-14T03:40:53;24.52;;;5.78;;
9799;SDS011;4939;52.00085300;4.17406100;2024-02-14T03:43:19;25.73;;;6.38;;
9799;SDS011;4939;52.00085300;4.17406100;2024-02-14T03:45:47;22.13;;;5.30;;
9799;SDS011;4939;52.00085300;4.17406100;2024-02-14T03:48:13;20.35;;;5.18;;
9799;SDS011;4939;52.00085300;4.17406100;2024-02-14T03:50:39;26.13;;;5.25;;
9799;SDS011;4939;52.00085300;4.17406100;2024-02-14T03:53:05;22.05;;;4.78;;
9799;SDS011;4939;52.00085300;4.17406100;2024-02-14T03:55:31;22.88;;;6.13;;
9799;SDS011;4939;52.00085300;4.17406100;2024-02-14T03:57:57;29.20;;;6.75;;
9799;SDS011;4939;52.00085300;4.17406100;2024-02-14T04:00:23;30.05;;;5.90;;
9799;SDS011;4939;52.00085300;4.17406100;2024-02-14T04:02:49;19.45;;;4.43;;
9799;SDS011;4939;52.00085300;4.17406100;2024-02-14T04:05:23;23.02;;;5.45;;
9799;SDS011;4939;52.00085300;4.17406100;2024-02-14T04:07:49;25.02;;;5.22;;
9799;SDS011;4939;52.00085300;4.17406100;2024-02-14T04:10:18;30.60;;;5.93;;
9799;SDS011;4939;52.00085300;4.17406100;2024-02-14T04:12:44;21.10;;;4.78;;
9799;SDS011;4939;52.00085300;4.17406100;2024-02-14T04:15:10;30.05;;;6.40;;
9799;SDS011;4939;52.00085300;4.17406100;2024-02-14T04:17:36;24.02;;;6.13;;
9799;SDS011;4939;52.00085300;4.17406100;2024-02-14T04:20:02;26.33;;;6.45;;
9799;SDS011;4939;52.00085300;4.17406100;2024-02-14T04:22:29;27.40;;;5.18;;
9799;SDS011;4939;52.00085300;4.17406100;2024-02-14T04:24:55;35.92;;;5.70;;
9799;SDS011;4939;52.00085300;4.17406100;2024-02-14T04:27:21;22.75;;;5.57;;
9799;SDS011;4939;52.00085300;4.17406100;2024-02-14T04:29:47;38.72;;;7.22;;
9799;SDS011;4939;52.00085300;4.17406100;2024-02-14T04:32:14;28.98;;;5.95;;
9799;SDS011;4939;52.00085300;4.17406100;2024-02-14T04:34:40;27.33;;;5.50;;
9799;SDS011;4939;52.00085300;4.17406100;2024-02-14T04:37:07;21.45;;;5.15;;
9799;SDS011;4939;52.00085300;4.17406100;2024-02-14T04:39:39;25.15;;;5.90;;
9799;SDS011;4939;52.00085300;4.17406100;2024-02-14T04:42:05;13.77;;;4.20;;
9799;SDS011;4939;52.00085300;4.17406100;2024-02-14T04:44:31;17.52;;;4.47;;
9799;SDS011;4939;52.00085300;4.17406100;2024-02-14T04:46:58;12.07;;;3.85;;
9799;SDS011;4939;52.00085300;4.17406100;2024-02-14T04:49:24;22.63;;;5.18;;
9799;SDS011;4939;52.00085300;4.17406100;2024-02-14T04:51:51;25.27;;;5.60;;
9799;SDS011;4939;52.00085300;4.17406100;2024-02-14T04:54:17;20.98;;;4.30;;
9799;SDS011;4939;52.00085300;4.17406100;2024-02-14T04:56:43;24.17;;;4.30;;
9799;SDS011;4939;52.00085300;4.17406100;2024-02-14T04:59:11;17.20;;;3.58;;
9799;SDS011;4939;52.00085300;4.17406100;2024-02-14T05:01:37;15.63;;;3.58;;
9799;SDS011;4939;52.00085300;4.17406100;2024-02-14T05:04:05;20.20;;;3.95;;
9799;SDS011;4939;52.00085300;4.17406100;2024-02-14T05:06:32;15.02;;;3.70;;
9799;SDS011;4939;52.00085300;4.17406100;2024-02-14T05:08:58;21.48;;;4.50;;
9799;SDS011;4939;52.00085300;4.17406100;2024-02-14T05:11:24;25.55;;;4.28;;
9799;SDS011;4939;52.00085300;4.17406100;2024-02-14T05:13:50;24.70;;;4.35;;
9799;SDS011;4939;52.00085300;4.17406100;2024-02-14T05:16:19;17.00;;;3.92;;
9799;SDS011;4939;52.00085300;4.17406100;2024-02-14T05:18:45;24.02;;;3.85;;
9799;SDS011;4939;52.00085300;4.17406100;2024-02-14T05:21:11;25.88;;;4.45;;
9799;SDS011;4939;52.00085300;4.17406100;2024-02-14T05:23:37;21.85;;;4.80;;
9799;SDS011;4939;52.00085300;4.17406100;2024-02-14T05:26:03;20.08;;;5.20;;
9799;SDS011;4939;52.00085300;4.17406100;2024-02-14T05:28:30;20.35;;;5.65;;
9799;SDS011;4939;52.00085300;4.17406100;2024-02-14T05:30:56;25.38;;;6.80;;
9799;SDS011;4939;52.00085300;4.17406100;2024-02-14T05:33:22;18.10;;;5.35;;
9799;SDS011;4939;52.00085300;4.17406100;2024-02-14T05:35:49;28.27;;;6.25;;
9799;SDS011;4939;52.00085300;4.17406100;2024-02-14T05:38:15;23.23;;;5.72;;
9799;SDS011;4939;52.00085300;4.17406100;2024-02-14T05:40:41;26.65;;;6.05;;
9799;SDS011;4939;52.00085300;4.17406100;2024-02-14T05:43:09;23.83;;;5.13;;
9799;SDS011;4939;52.00085300;4.17406100;2024-02-14T05:45:35;16.60;;;4.40;;
9799;SDS011;4939;52.00085300;4.17406100;2024-02-14T05:48:01;22.27;;;5.20;;
9799;SDS011;4939;52.00085300;4.17406100;2024-02-14T05:50:28;23.40;;;5.07;;
9799;SDS011;4939;52.00085300;4.17406100;2024-02-14T05:52:54;20.23;;;5.15;;
9799;SDS011;4939;52.00085300;4.17406100;2024-02-14T05:55:23;23.17;;;5.68;;
9799;SDS011;4939;52.00085300;4.17406100;2024-02-14T05:57:50;23.58;;;5.97;;
9799;SDS011;4939;52.00085300;4.17406100;2024-02-14T06:00:17;28.42;;;5.15;;
9799;SDS011;4939;52.00085300;4.17406100;2024-02-14T06:02:44;16.98;;;4.63;;
9799;SDS011;4939;52.00085300;4.17406100;2024-02-14T06:05:10;21.10;;;5.22;;
9799;SDS011;4939;52.00085300;4.17406100;2024-02-14T06:07:36;17.52;;;4.75;;
9799;SDS011;4939;52.00085300;4.17406100;2024-02-14T06:10:02;21.25;;;4.82;;
9799;SDS011;4939;52.00085300;4.17406100;2024-02-14T06:12:31;16.20;;;5.22;;
9799;SDS011;4939;52.00085300;4.17406100;2024-02-14T06:14:58;19.40;;;6.28;;
9799;SDS011;4939;52.00085300;4.17406100;2024-02-14T06:17:24;27.42;;;6.85;;
9799;SDS011;4939;52.00085300;4.17406100;2024-02-14T06:19:53;23.00;;;6.88;;
9799;SDS011;4939;52.00085300;4.17406100;2024-02-14T06:22:19;15.77;;;5.75;;
9799;SDS011;4939;52.00085300;4.17406100;2024-02-14T06:24:46;17.77;;;4.63;;
9799;SDS011;4939;52.00085300;4.17406100;2024-02-14T06:27:15;13.05;;;4.93;;
9799;SDS011;4939;52.00085300;4.17406100;2024-02-14T06:29:44;30.48;;;6.97;;
9799;SDS011;4939;52.00085300;4.17406100;2024-02-14T06:32:13;19.48;;;5.90;;
9799;SDS011;4939;52.00085300;4.17406100;2024-02-14T06:34:39;25.73;;;6.55;;
9799;SDS011;4939;52.00085300;4.17406100;2024-02-14T06:37:05;24.63;;;5.97;;
9799;SDS011;4939;52.00085300;4.17406100;2024-02-14T06:39:31;25.75;;;5.72;;
9799;SDS011;4939;52.00085300;4.17406100;2024-02-14T06:41:57;16.38;;;4.65;;
9799;SDS011;4939;52.00085300;4.17406100;2024-02-14T06:44:23;26.77;;;6.45;;
9799;SDS011;4939;52.00085300;4.17406100;2024-02-14T06:46:49;16.48;;;5.45;;
9799;SDS011;4939;52.00085300;4.17406100;2024-02-14T06:49:16;18.73;;;5.38;;
9799;SDS011;4939;52.00085300;4.17406100;2024-02-14T06:51:42;19.90;;;5.35;;
9799;SDS011;4939;52.00085300;4.17406100;2024-02-14T06:54:08;19.60;;;5.18;;
9799;SDS011;4939;52.00085300;4.17406100;2024-02-14T06:56:35;23.58;;;5.82;;
9799;SDS011;4939;52.00085300;4.17406100;2024-02-14T06:59:01;17.50;;;5.07;;
9799;SDS011;4939;52.00085300;4.17406100;2024-02-14T07:01:28;27.05;;;6.20;;
9799;SDS011;4939;52.00085300;4.17406100;2024-02-14T07:03:54;20.67;;;6.22;;
9799;SDS011;4939;52.00085300;4.17406100;2024-02-14T07:06:21;18.92;;;5.93;;
9799;SDS011;4939;52.00085300;4.17406100;2024-02-14T07:08:47;22.58;;;5.63;;
9799;SDS011;4939;52.00085300;4.17406100;2024-02-14T07:11:14;21.27;;;6.07;;
9799;SDS011;4939;52.00085300;4.17406100;2024-02-14T07:13:43;14.23;;;5.70;;
9799;SDS011;4939;52.00085300;4.17406100;2024-02-14T07:16:09;26.45;;;6.43;;
9799;SDS011;4939;52.00085300;4.17406100;2024-02-14T07:18:35;24.25;;;6.10;;
9799;SDS011;4939;52.00085300;4.17406100;2024-02-14T07:21:01;15.27;;;5.80;;
9799;SDS011;4939;52.00085300;4.17406100;2024-02-14T07:23:30;17.80;;;5.82;;
9799;SDS011;4939;52.00085300;4.17406100;2024-02-14T07:25:57;21.73;;;4.53;;
9799;SDS011;4939;52.00085300;4.17406100;2024-02-14T07:28:23;18.67;;;5.43;;
9799;SDS011;4939;52.00085300;4.17406100;2024-02-14T07:30:51;16.90;;;5.47;;
9799;SDS011;4939;52.00085300;4.17406100;2024-02-14T07:33:17;16.13;;;5.63;;
9799;SDS011;4939;52.00085300;4.17406100;2024-02-14T07:35:43;18.85;;;5.35;;
9799;SDS011;4939;52.00085300;4.17406100;2024-02-14T07:38:09;21.33;;;5.30;;
9799;SDS011;4939;52.00085300;4.17406100;2024-02-14T07:40:35;9.60;;;3.72;;
9799;SDS011;4939;52.00085300;4.17406100;2024-02-14T07:43:02;23.85;;;6.13;;
9799;SDS011;4939;52.00085300;4.17406100;2024-02-14T07:45:28;16.80;;;4.30;;
9799;SDS011;4939;52.00085300;4.17406100;2024-02-14T07:47:54;18.73;;;5.22;;
9799;SDS011;4939;52.00085300;4.17406100;2024-02-14T07:50:20;16.00;;;5.80;;
9799;SDS011;4939;52.00085300;4.17406100;2024-02-14T07:52:46;17.35;;;5.97;;
9799;SDS011;4939;52.00085300;4.17406100;2024-02-14T07:55:13;13.40;;;5.07;;
9799;SDS011;4939;52.00085300;4.17406100;2024-02-14T07:57:39;16.38;;;6.03;;
9799;SDS011;4939;52.00085300;4.17406100;2024-02-14T08:00:05;21.80;;;6.25;;
9799;SDS011;4939;52.00085300;4.17406100;2024-02-14T08:02:33;21.23;;;6.78;;
9799;SDS011;4939;52.00085300;4.17406100;2024-02-14T08:04:59;14.73;;;6.75;;
9799;SDS011;4939;52.00085300;4.17406100;2024-02-14T08:07:25;16.10;;;6.88;;
9799;SDS011;4939;52.00085300;4.17406100;2024-02-14T08:09:51;20.20;;;8.05;;
9799;SDS011;4939;52.00085300;4.17406100;2024-02-14T08:12:18;20.52;;;8.93;;
9799;SDS011;4939;52.00085300;4.17406100;2024-02-14T08:14:44;22.27;;;10.10;;
9799;SDS011;4939;52.00085300;4.17406100;2024-02-14T08:17:12;22.80;;;9.95;;
9799;SDS011;4939;52.00085300;4.17406100;2024-02-14T08:19:38;25.67;;;9.02;;
9799;SDS011;4939;52.00085300;4.17406100;2024-02-14T08:22:04;25.10;;;10.13;;
9799;SDS011;4939;52.00085300;4.17406100;2024-02-14T08:24:32;18.13;;;7.82;;
9799;SDS011;4939;52.00085300;4.17406100;2024-02-14T08:26:58;24.92;;;9.60;;
9799;SDS011;4939;52.00085300;4.17406100;2024-02-14T08:29:24;24.08;;;9.52;;
9799;SDS011;4939;52.00085300;4.17406100;2024-02-14T08:31:50;23.85;;;9.50;;
9799;SDS011;4939;52.00085300;4.17406100;2024-02-14T08:34:16;27.98;;;9.40;;
9799;SDS011;4939;52.00085300;4.17406100;2024-02-14T08:36:42;23.05;;;9.75;;
9799;SDS011;4939;52.00085300;4.17406100;2024-02-14T08:39:08;21.00;;;7.53;;
9799;SDS011;4939;52.00085300;4.17406100;2024-02-14T08:41:35;19.65;;;8.55;;
9799;SDS011;4939;52.00085300;4.17406100;2024-02-14T08:44:06;27.08;;;9.55;;
9799;SDS011;4939;52.00085300;4.17406100;2024-02-14T08:46:32;25.90;;;8.82;;
9799;SDS011;4939;52.00085300;4.17406100;2024-02-14T08:49:00;21.35;;;8.20;;
9799;SDS011;4939;52.00085300;4.17406100;2024-02-14T08:51:27;19.30;;;7.78;;
9799;SDS011;4939;52.00085300;4.17406100;2024-02-14T08:53:53;19.75;;;8.32;;
9799;SDS011;4939;52.00085300;4.17406100;2024-02-14T08:56:22;18.83;;;7.35;;
9799;SDS011;4939;52.00085300;4.17406100;2024-02-14T08:58:48;17.27;;;7.57;;
9799;SDS011;4939;52.00085300;4.17406100;2024-02-14T09:01:14;18.95;;;7.32;;
9799;SDS011;4939;52.00085300;4.17406100;2024-02-14T09:03:43;19.02;;;7.10;;
9799;SDS011;4939;52.00085300;4.17406100;2024-02-14T09:06:13;16.50;;;6.47;;
9799;SDS011;4939;52.00085300;4.17406100;2024-02-14T09:08:40;12.23;;;5.57;;
9799;SDS011;4939;52.00085300;4.17406100;2024-02-14T09:11:06;12.75;;;5.00;;
9799;SDS011;4939;52.00085300;4.17406100;2024-02-14T09:13:33;15.45;;;6.43;;
9799;SDS011;4939;52.00085300;4.17406100;2024-02-14T09:15:59;12.95;;;5.68;;
9799;SDS011;4939;52.00085300;4.17406100;2024-02-14T09:18:26;13.77;;;5.70;;
9799;SDS011;4939;52.00085300;4.17406100;2024-02-14T09:20:52;11.93;;;5.47;;
9799;SDS011;4939;52.00085300;4.17406100;2024-02-14T09:23:18;15.07;;;6.55;;
9799;SDS011;4939;52.00085300;4.17406100;2024-02-14T09:25:46;13.15;;;6.32;;
9799;SDS011;4939;52.00085300;4.17406100;2024-02-14T09:28:13;11.32;;;5.10;;
9799;SDS011;4939;52.00085300;4.17406100;2024-02-14T09:30:39;13.57;;;6.32;;
9799;SDS011;4939;52.00085300;4.17406100;2024-02-14T09:33:05;14.95;;;6.57;;
9799;SDS011;4939;52.00085300;4.17406100;2024-02-14T09:35:31;14.25;;;6.50;;
9799;SDS011;4939;52.00085300;4.17406100;2024-02-14T09:37:57;13.25;;;6.28;;
9799;SDS011;4939;52.00085300;4.17406100;2024-02-14T09:40:24;14.52;;;6.20;;
9799;SDS011;4939;52.00085300;4.17406100;2024-02-14T09:42:54;15.40;;;6.70;;
9799;SDS011;4939;52.00085300;4.17406100;2024-02-14T09:45:24;14.93;;;5.80;;
9799;SDS011;4939;52.00085300;4.17406100;2024-02-14T09:47:51;14.55;;;6.28;;
9799;SDS011;4939;52.00085300;4.17406100;2024-02-14T09:50:17;12.57;;;6.22;;
9799;SDS011;4939;52.00085300;4.17406100;2024-02-14T09:52:46;12.95;;;6.03;;
9799;SDS011;4939;52.00085300;4.17406100;2024-02-14T09:55:13;13.90;;;5.70;;
9799;SDS011;4939;52.00085300;4.17406100;2024-02-14T09:57:40;12.13;;;5.70;;
9799;SDS011;4939;52.00085300;4.17406100;2024-02-14T10:00:09;14.65;;;5.97;;
9799;SDS011;4939;52.00085300;4.17406100;2024-02-14T10:02:36;12.07;;;5.03;;
9799;SDS011;4939;52.00085300;4.17406100;2024-02-14T10:05:03;10.38;;;4.75;;
9799;SDS011;4939;52.00085300;4.17406100;2024-02-14T10:07:29;8.82;;;3.83;;
9799;SDS011;4939;52.00085300;4.17406100;2024-02-14T10:10:05;9.32;;;4.10;;
9799;SDS011;4939;52.00085300;4.17406100;2024-02-14T10:12:31;8.65;;;3.90;;
9799;SDS011;4939;52.00085300;4.17406100;2024-02-14T10:14:57;8.00;;;3.70;;
9799;SDS011;4939;52.00085300;4.17406100;2024-02-14T10:17:23;9.68;;;4.10;;
9799;SDS011;4939;52.00085300;4.17406100;2024-02-14T10:19:56;12.07;;;5.05;;
9799;SDS011;4939;52.00085300;4.17406100;2024-02-14T10:22:36;12.02;;;5.38;;
9799;SDS011;4939;52.00085300;4.17406100;2024-02-14T10:25:04;15.18;;;6.18;;
9799;SDS011;4939;52.00085300;4.17406100;2024-02-14T10:27:34;11.30;;;5.55;;
9799;SDS011;4939;52.00085300;4.17406100;2024-02-14T10:30:03;11.18;;;5.20;;
9799;SDS011;4939;52.00085300;4.17406100;2024-02-14T10:32:37;11.43;;;5.57;;
9799;SDS011;4939;52.00085300;4.17406100;2024-02-14T10:35:05;12.60;;;5.82;;
9799;SDS011;4939;52.00085300;4.17406100;2024-02-14T10:37:37;12.43;;;6.10;;
9799;SDS011;4939;52.00085300;4.17406100;2024-02-14T10:40:03;11.20;;;5.53;;
9799;SDS011;4939;52.00085300;4.17406100;2024-02-14T10:42:33;13.30;;;5.85;;
9799;SDS011;4939;52.00085300;4.17406100;2024-02-14T10:44:59;12.25;;;5.60;;
9799;SDS011;4939;52.00085300;4.17406100;2024-02-14T10:47:29;11.32;;;5.40;;
9799;SDS011;4939;52.00085300;4.17406100;2024-02-14T10:49:57;13.10;;;5.38;;
9799;SDS011;4939;52.00085300;4.17406100;2024-02-14T10:52:29;11.55;;;5.00;;
9799;SDS011;4939;52.00085300;4.17406100;2024-02-14T10:54:58;11.30;;;5.32;;
9799;SDS011;4939;52.00085300;4.17406100;2024-02-14T10:57:26;10.82;;;5.10;;
9799;SDS011;4939;52.00085300;4.17406100;2024-02-14T10:59:54;11.57;;;5.22;;
9799;SDS011;4939;52.00085300;4.17406100;2024-02-14T11:02:20;9.45;;;4.05;;
9799;SDS011;4939;52.00085300;4.17406100;2024-02-14T11:04:46;11.13;;;4.50;;
9799;SDS011;4939;52.00085300;4.17406100;2024-02-14T11:07:12;11.95;;;4.68;;
9799;SDS011;4939;52.00085300;4.17406100;2024-02-14T11:09:40;13.20;;;4.88;;
9799;SDS011;4939;52.00085300;4.17406100;2024-02-14T11:12:07;10.32;;;5.20;;
9799;SDS011;4939;52.00085300;4.17406100;2024-02-14T11:14:36;10.82;;;5.10;;
9799;SDS011;4939;52.00085300;4.17406100;2024-02-14T11:17:08;9.15;;;4.60;;
9799;SDS011;4939;52.00085300;4.17406100;2024-02-14T11:19:35;13.13;;;4.50;;
9799;SDS011;4939;52.00085300;4.17406100;2024-02-14T11:22:17;8.40;;;4.15;;
9799;SDS011;4939;52.00085300;4.17406100;2024-02-14T11:24:47;9.85;;;4.53;;
9799;SDS011;4939;52.00085300;4.17406100;2024-02-14T11:27:13;7.82;;;3.70;;
9799;SDS011;4939;52.00085300;4.17406100;2024-02-14T11:29:40;8.27;;;3.90;;
9799;SDS011;4939;52.00085300;4.17406100;2024-02-14T11:32:10;7.38;;;3.58;;
9799;SDS011;4939;52.00085300;4.17406100;2024-02-14T11:34:36;10.23;;;4.15;;
9799;SDS011;4939;52.00085300;4.17406100;2024-02-14T11:37:03;6.20;;;3.03;;
9799;SDS011;4939;52.00085300;4.17406100;2024-02-14T11:39:30;7.72;;;3.65;;
9799;SDS011;4939;52.00085300;4.17406100;2024-02-14T11:41:58;8.85;;;3.63;;
9799;SDS011;4939;52.00085300;4.17406100;2024-02-14T11:44:24;8.25;;;4.05;;
9799;SDS011;4939;52.00085300;4.17406100;2024-02-14T11:46:51;8.05;;;4.10;;
9799;SDS011;4939;52.00085300;4.17406100;2024-02-14T11:49:17;7.07;;;3.63;;
9799;SDS011;4939;52.00085300;4.17406100;2024-02-14T11:51:43;8.50;;;4.18;;
9799;SDS011;4939;52.00085300;4.17406100;2024-02-14T11:54:09;7.90;;;3.78;;
9799;SDS011;4939;52.00085300;4.17406100;2024-02-14T11:56:38;8.70;;;3.97;;
9799;SDS011;4939;52.00085300;4.17406100;2024-02-14T11:59:06;9.38;;;3.85;;
9799;SDS011;4939;52.00085300;4.17406100;2024-02-14T12:01:35;7.80;;;3.72;;
9799;SDS011;4939;52.00085300;4.17406100;2024-02-14T12:04:02;9.93;;;4.10;;
9799;SDS011;4939;52.00085300;4.17406100;2024-02-14T12:06:30;6.78;;;3.17;;
9799;SDS011;4939;52.00085300;4.17406100;2024-02-14T12:08:59;9.95;;;3.92;;
9799;SDS011;4939;52.00085300;4.17406100;2024-02-14T12:11:30;8.35;;;4.28;;
9799;SDS011;4939;52.00085300;4.17406100;2024-02-14T12:14:00;8.90;;;4.15;;
9799;SDS011;4939;52.00085300;4.17406100;2024-02-14T12:16:26;8.23;;;3.75;;
9799;SDS011;4939;52.00085300;4.17406100;2024-02-14T12:19:09;9.82;;;4.28;;
9799;SDS011;4939;52.00085300;4.17406100;2024-02-14T12:21:40;9.73;;;4.35;;
9799;SDS011;4939;52.00085300;4.17406100;2024-02-14T12:24:09;9.35;;;4.43;;
9799;SDS011;4939;52.00085300;4.17406100;2024-02-14T12:26:38;9.40;;;4.03;;
9799;SDS011;4939;52.00085300;4.17406100;2024-02-14T12:29:04;8.20;;;3.75;;
9799;SDS011;4939;52.00085300;4.17406100;2024-02-14T12:31:31;9.63;;;4.07;;
9799;SDS011;4939;52.00085300;4.17406100;2024-02-14T12:33:58;10.88;;;4.20;;
9799;SDS011;4939;52.00085300;4.17406100;2024-02-14T12:36:31;9.43;;;3.72;;
9799;SDS011;4939;52.00085300;4.17406100;2024-02-14T12:39:00;8.15;;;3.55;;
9799;SDS011;4939;52.00085300;4.17406100;2024-02-14T12:41:27;9.98;;;3.92;;
9799;SDS011;4939;52.00085300;4.17406100;2024-02-14T12:43:54;8.02;;;2.80;;
9799;SDS011;4939;52.00085300;4.17406100;2024-02-14T12:46:21;10.80;;;3.83;;
9799;SDS011;4939;52.00085300;4.17406100;2024-02-14T12:48:47;8.88;;;4.18;;
9799;SDS011;4939;52.00085300;4.17406100;2024-02-14T12:51:13;9.60;;;3.95;;
9799;SDS011;4939;52.00085300;4.17406100;2024-02-14T12:53:39;11.38;;;3.83;;
9799;SDS011;4939;52.00085300;4.17406100;2024-02-14T12:56:06;8.30;;;3.85;;
9799;SDS011;4939;52.00085300;4.17406100;2024-02-14T12:58:32;10.02;;;3.65;;
9799;SDS011;4939;52.00085300;4.17406100;2024-02-14T13:00:58;8.52;;;3.67;;